Time;durP1;ratioP1;P1;durP2;ratioP2;P2;SDS_P1;SDS_P2;PMS_P1;PMS_P2;Temp;Humidity;BMP_temperature;BMP_pressure;BME280_temperature;BME280_humidity;BME280_pressure;Samples;Min_cycle;Max_cycle;Signal;HPM_P1;HPM_P2
2022/03/19 00:01:18;;;;;;;;;;;;;;;11.70;34.30;102772.06;5029689;28;19913;-74
2022/03/19 00:04:03;;;;;;;;;;;;;;;11.73;34.70;102776.19;5033313;28;19913;-73
2022/03/19 00:06:47;;;;;;;;;;;;;;;11.57;34.50;102767.97;5033584;28;19913;-74
2022/03/19 00:09:32;;;;;;;;;;;;;;;11.65;34.70;102763.06;5033013;28;19913;-74
2022/03/19 00:12:16;;;;;;;;;;;;;;;11.34;35.13;102770.38;5022093;28;19917;-74
2022/03/19 00:15:01;;;;;;;;;;;;;;;11.35;35.56;102766.56;5033595;28;19912;-73
2022/03/19 00:17:46;;;;;;;;;;;;;;;11.38;35.51;102763.31;5033447;28;20287;-73
2022/03/19 00:20:31;;;;;;;;;;;;;;;11.24;35.41;102765.75;5033311;28;19917;-74
2022/03/19 00:23:15;;;;;;;;;;;;;;;11.20;35.55;102767.38;5035009;28;19913;-74
2022/03/19 00:26:00;;;;;;;;;;;;;;;11.04;36.43;102769.22;5032646;28;19917;-74
2022/03/19 00:28:44;;;;;;;;;;;;;;;11.00;36.12;102773.59;5053020;28;19912;-74
2022/03/19 00:31:29;;;;;;;;;;;;;;;10.86;36.54;102766.19;5032942;28;19913;-74
2022/03/19 00:34:13;;;;;;;;;;;;;;;10.74;36.85;102763.69;5052939;28;19913;-74
2022/03/19 00:36:58;;;;;;;;;;;;;;;10.76;36.90;102761.53;5036043;28;19913;-74
2022/03/19 00:39:43;;;;;;;;;;;;;;;10.68;37.00;102759.28;5032618;28;20368;-74
2022/03/19 00:42:27;;;;;;;;;;;;;;;10.63;37.51;102764.72;5032775;28;19913;-73
2022/03/19 00:45:11;;;;;;;;;;;;;;;10.55;37.88;102757.06;5052538;28;19913;-73
2022/03/19 00:47:57;;;;;;;;;;;;;;;10.57;38.69;102760.31;5032824;28;20318;-73
2022/03/19 00:50:43;;;;;;;;;;;;;;;10.70;38.11;102765.31;5032701;28;19913;-74
2022/03/19 00:53:27;;;;;;;;;;;;;;;10.78;38.29;102758.50;5049841;28;19932;-73
2022/03/19 00:56:12;;;;;;;;;;;;;;;10.80;37.96;102751.75;5032832;28;19917;-73
2022/03/19 00:58:57;;;;;;;;;;;;;;;10.73;38.31;102751.16;5033256;28;20409;-74
2022/03/19 01:01:41;;;;;;;;;;;;;;;10.77;38.03;102765.06;5032908;28;19913;-74
2022/03/19 01:04:25;;;;;;;;;;;;;;;10.73;38.09;102759.31;5038369;28;19909;-74
2022/03/19 01:07:10;;;;;;;;;;;;;;;10.63;38.26;102756.56;5035184;28;20048;-74
2022/03/19 01:09:54;;;;;;;;;;;;;;;10.64;38.38;102753.56;5032491;28;19913;-74
2022/03/19 01:12:38;;;;;;;;;;;;;;;10.70;38.43;102751.69;5032564;28;19913;-74
2022/03/19 01:15:23;;;;;;;;;;;;;;;10.63;38.82;102748.38;5032551;28;19913;-73
2022/03/19 01:18:08;;;;;;;;;;;;;;;10.69;38.53;102750.06;5012768;28;19913;-74
2022/03/19 01:20:52;;;;;;;;;;;;;;;10.78;38.15;102751.19;5012692;28;19913;-74
2022/03/19 01:23:37;;;;;;;;;;;;;;;10.79;38.32;102741.09;5029599;28;19913;-74
2022/03/19 01:26:21;;;;;;;;;;;;;;;10.81;37.96;102747.94;5032482;28;19913;-74
2022/03/19 01:29:06;;;;;;;;;;;;;;;10.78;37.86;102740.28;5025695;28;19916;-74
2022/03/19 01:31:50;;;;;;;;;;;;;;;10.80;38.69;102745.47;5032033;28;19917;-74
2022/03/19 01:34:36;;;;;;;;;;;;;;;10.84;38.29;102746.56;5032171;28;20292;-74
2022/03/19 01:37:21;;;;;;;;;;;;;;;10.83;38.26;102744.94;5034978;28;19917;-74
2022/03/19 01:40:09;;;;;;;;;;;;;;;10.99;37.78;102752.88;5035808;28;19913;-74
2022/03/19 01:42:54;;;;;;;;;;;;;;;11.02;37.44;102748.81;5026616;28;19914;-74
2022/03/19 01:45:41;;;;;;;;;;;;;;;10.89;38.13;102755.56;5016502;28;19914;-74
2022/03/19 01:48:25;;;;;;;;;;;;;;;10.98;40.28;102742.25;5016096;28;19913;-74
2022/03/19 01:51:10;;;;;;;;;;;;;;;10.93;39.16;102743.06;5015952;28;19917;-74
2022/03/19 01:53:54;;;;;;;;;;;;;;;10.92;38.96;102738.69;5015813;28;20281;-74
2022/03/19 01:56:39;;;;;;;;;;;;;;;10.87;39.37;102735.97;5015835;28;19913;-74
2022/03/19 01:59:26;;;;;;;;;;;;;;;10.86;38.88;102747.13;5016005;28;19913;-74
2022/03/19 02:02:13;;;;;;;;;;;;;;;10.86;38.46;102742.50;5015859;28;19917;-74
2022/03/19 02:05:01;;;;;;;;;;;;;;;10.87;37.86;102746.84;5015752;28;19913;-74
2022/03/19 02:07:47;;;;;;;;;;;;;;;10.75;38.49;102740.00;5015699;28;19913;-74
2022/03/19 02:10:34;;;;;;;;;;;;;;;10.68;37.81;102749.22;5098088;22;20325;-84
2022/03/19 02:13:19;;;;;;;;;;;;;;;10.72;37.99;102744.06;5096058;28;19916;-83
2022/03/19 02:16:04;;;;;;;;;;;;;;;10.62;38.19;102730.44;5117201;28;19911;-84
2022/03/19 02:18:48;;;;;;;;;;;;;;;10.58;37.90;102738.31;5099562;28;19912;-84
2022/03/19 02:21:43;;;;;;;;;;;;;;;10.55;38.10;102740.75;5103888;28;20380;-84
2022/03/19 02:27:32;;;;;;;;;;;;;;;10.76;39.01;102731.59;5078441;28;19912;-84
2022/03/19 02:30:17;;;;;;;;;;;;;;;10.79;38.16;102732.94;5096016;28;19912;-84
2022/03/19 02:33:01;;;;;;;;;;;;;;;10.79;37.56;102738.38;5093969;28;19932;-83
2022/03/19 02:35:47;;;;;;;;;;;;;;;10.69;37.91;102737.28;5097525;28;19912;-84
2022/03/19 02:38:31;;;;;;;;;;;;;;;11.00;36.10;102735.47;5100662;28;19912;-81
2022/03/19 02:41:16;;;;;;;;;;;;;;;10.73;36.86;102732.94;5098524;28;19912;-81
2022/03/19 02:44:02;;;;;;;;;;;;;;;10.72;37.34;102731.28;5087168;28;19912;-81
2022/03/19 02:46:51;;;;;;;;;;;;;;;10.70;36.95;102736.19;5105682;28;19912;-80
2022/03/19 02:49:36;;;;;;;;;;;;;;;10.67;36.43;102733.16;5088478;28;19913;-81
2022/03/19 02:52:20;;;;;;;;;;;;;;;10.55;36.51;102738.03;5082219;28;19923;-81
2022/03/19 02:55:05;;;;;;;;;;;;;;;10.59;36.75;102730.97;5087965;28;19938;-81
2022/03/19 02:57:50;;;;;;;;;;;;;;;10.57;36.74;102736.66;5089525;28;19912;-80
2022/03/19 03:00:35;;;;;;;;;;;;;;;10.60;36.79;102735.34;5075689;28;20296;-81
2022/03/19 03:03:20;;;;;;;;;;;;;;;10.63;37.92;102727.44;5093251;28;19912;-81
2022/03/19 03:06:05;;;;;;;;;;;;;;;10.53;37.74;102726.59;5092481;28;20299;-81
2022/03/19 03:08:49;;;;;;;;;;;;;;;10.40;37.74;102729.81;5088424;28;19912;-80
2022/03/19 03:11:33;;;;;;;;;;;;;;;10.24;38.60;102732.44;5088827;28;19912;-83
2022/03/19 03:14:20;;;;;;;;;;;;;;;10.26;38.07;102724.81;5098656;28;19920;-83
2022/03/19 03:17:07;;;;;;;;;;;;;;;10.35;39.43;102733.31;5085166;28;19952;-83
2022/03/19 03:19:52;;;;;;;;;;;;;;;10.06;38.51;102732.81;5098091;28;19916;-82
2022/03/19 03:22:37;;;;;;;;;;;;;;;9.96;38.60;102735.47;5087032;28;19912;-83
2022/03/19 03:25:22;;;;;;;;;;;;;;;10.02;38.37;102736.31;5100148;28;19912;-81
2022/03/19 03:28:06;;;;;;;;;;;;;;;9.96;38.44;102734.66;5085227;28;19916;-81
2022/03/19 03:30:51;;;;;;;;;;;;;;;9.98;40.43;102736.03;5098710;28;19912;-83
2022/03/19 03:33:35;;;;;;;;;;;;;;;9.93;38.56;102735.19;5098263;28;19916;-82
2022/03/19 03:36:20;;;;;;;;;;;;;;;9.92;38.80;102737.06;5083049;28;19912;-83
2022/03/19 03:39:05;;;;;;;;;;;;;;;9.86;39.63;102733.50;5088683;28;19912;-80
2022/03/19 03:41:50;;;;;;;;;;;;;;;9.68;39.30;102733.09;5092217;28;19912;-81
2022/03/19 03:44:35;;;;;;;;;;;;;;;9.58;39.28;102731.13;5092391;28;20312;-81
2022/03/19 03:47:19;;;;;;;;;;;;;;;9.53;39.79;102728.38;5089593;28;19912;-81
2022/03/19 03:50:04;;;;;;;;;;;;;;;9.60;39.51;102722.72;5087681;28;19912;-81
2022/03/19 03:52:49;;;;;;;;;;;;;;;9.57;39.30;102715.91;5086460;28;19916;-81
2022/03/19 03:55:34;;;;;;;;;;;;;;;9.67;39.16;102721.41;5092195;28;19912;-80
2022/03/19 03:58:18;;;;;;;;;;;;;;;9.55;39.90;102709.91;5099911;28;19916;-80
2022/03/19 04:01:03;;;;;;;;;;;;;;;9.57;39.41;102715.91;5085155;28;19912;-81
2022/03/19 04:03:47;;;;;;;;;;;;;;;9.70;38.78;102717.38;5090523;28;19912;-81
2022/03/19 04:06:32;;;;;;;;;;;;;;;9.64;38.76;102719.22;5088109;28;19912;-81
2022/03/19 04:09:17;;;;;;;;;;;;;;;9.69;39.56;102721.97;5088689;28;19911;-81
2022/03/19 04:12:04;;;;;;;;;;;;;;;9.68;39.33;102724.94;5091799;28;19912;-81
2022/03/19 04:14:49;;;;;;;;;;;;;;;9.79;39.04;102713.09;5088080;28;19916;-81
2022/03/19 04:17:34;;;;;;;;;;;;;;;9.75;39.26;102711.97;5099867;28;20300;-81
2022/03/19 04:20:19;;;;;;;;;;;;;;;9.70;39.15;102714.66;5085801;28;19912;-80
2022/03/19 04:23:03;;;;;;;;;;;;;;;9.91;39.57;102716.41;5099169;28;19912;-81
2022/03/19 04:25:48;;;;;;;;;;;;;;;10.21;38.72;102715.81;5083968;28;19916;-83
2022/03/19 04:28:32;;;;;;;;;;;;;;;9.84;38.73;102713.13;5096763;28;19912;-83
2022/03/19 04:31:17;;;;;;;;;;;;;;;9.48;39.11;102711.22;5096677;28;19912;-83
2022/03/19 04:34:01;;;;;;;;;;;;;;;9.69;40.52;102719.28;5083868;28;19916;-83
2022/03/19 04:36:46;;;;;;;;;;;;;;;9.60;39.92;102723.50;5081735;28;19912;-83
2022/03/19 04:39:30;;;;;;;;;;;;;;;9.17;41.01;102729.09;5085228;28;19912;-82
2022/03/19 04:42:16;;;;;;;;;;;;;;;9.13;41.28;102728.81;5097116;28;19911;-83
2022/03/19 04:45:01;;;;;;;;;;;;;;;9.23;40.23;102728.91;5081803;28;19912;-83
2022/03/19 04:47:46;;;;;;;;;;;;;;;9.25;40.65;102729.44;5084343;28;19912;-81
2022/03/19 04:50:31;;;;;;;;;;;;;;;9.21;40.14;102724.78;5083736;28;19912;-81
2022/03/19 04:53:18;;;;;;;;;;;;;;;9.14;40.74;102726.91;5099418;28;19916;-81
2022/03/19 04:56:02;;;;;;;;;;;;;;;9.05;40.31;102731.97;5088739;28;19912;-80
2022/03/19 04:58:48;;;;;;;;;;;;;;;8.95;40.55;102724.53;5098213;28;19912;-81
2022/03/19 05:01:34;;;;;;;;;;;;;;;8.94;41.23;102731.03;5090025;28;19912;-80
2022/03/19 05:04:18;;;;;;;;;;;;;;;8.88;40.78;102723.94;5083339;28;19916;-80
2022/03/19 05:07:03;;;;;;;;;;;;;;;8.86;43.34;102726.06;5087178;28;19912;-81
2022/03/19 05:12:51;;;;;;;;;;;;;;;8.73;44.58;102728.34;5089759;28;19916;-81
2022/03/19 05:15:36;;;;;;;;;;;;;;;8.88;42.36;102731.25;5082637;28;19912;-80
2022/03/19 05:18:21;;;;;;;;;;;;;;;8.67;42.79;102726.66;5102491;28;20299;-80
2022/03/19 05:21:05;;;;;;;;;;;;;;;8.66;42.75;102735.84;5091326;28;20376;-81
2022/03/19 05:23:49;;;;;;;;;;;;;;;8.62;42.90;102732.84;5086145;28;19912;-81
2022/03/19 05:26:34;;;;;;;;;;;;;;;8.57;43.20;102728.19;5093797;28;19912;-80
2022/03/19 05:29:21;;;;;;;;;;;;;;;8.57;43.30;102730.06;5102099;28;19916;-80
2022/03/19 05:32:06;;;;;;;;;;;;;;;8.44;43.67;102728.53;5102127;28;19912;-80
2022/03/19 05:34:51;;;;;;;;;;;;;;;8.40;44.12;102726.56;5101882;28;20324;-80
2022/03/19 05:37:36;;;;;;;;;;;;;;;8.32;43.93;102732.44;5090231;28;19912;-80
2022/03/19 05:40:21;;;;;;;;;;;;;;;8.10;44.48;102729.66;5103506;28;19912;-79
2022/03/19 05:43:05;;;;;;;;;;;;;;;8.17;44.73;102733.03;5086722;28;19912;-79
2022/03/19 05:45:50;;;;;;;;;;;;;;;8.22;45.20;102729.56;5086801;28;19916;-80
2022/03/19 05:48:35;;;;;;;;;;;;;;;8.07;45.66;102738.28;5086114;28;19912;-81
2022/03/19 05:51:20;;;;;;;;;;;;;;;8.20;44.89;102729.81;5086246;28;19912;-81
2022/03/19 05:54:04;;;;;;;;;;;;;;;8.19;45.74;102730.88;5079321;28;19917;-81
2022/03/19 05:56:51;;;;;;;;;;;;;;;8.18;45.58;102723.81;5080964;28;20300;-81
2022/03/19 05:59:36;;;;;;;;;;;;;;;8.28;45.82;102723.94;5082950;28;19912;-81
2022/03/19 06:02:20;;;;;;;;;;;;;;;8.35;46.05;102718.38;5086560;28;19911;-81
2022/03/19 06:05:05;;;;;;;;;;;;;;;8.48;45.89;102726.94;5090189;28;19912;-81
2022/03/19 06:07:49;;;;;;;;;;;;;;;8.52;45.35;102730.81;5101421;28;19912;-81
2022/03/19 06:10:35;;;;;;;;;;;;;;;8.48;46.59;102718.81;5065735;28;19912;-80
2022/03/19 06:13:20;;;;;;;;;;;;;;;8.53;46.86;102710.75;5081083;28;19917;-80
2022/03/19 06:16:04;;;;;;;;;;;;;;;8.67;46.64;102715.81;5081336;28;19912;-81
2022/03/19 06:18:52;;;;;;;;;;;;;;;8.71;45.75;102716.94;5083890;28;19912;-81
2022/03/19 06:21:39;;;;;;;;;;;;;;;8.74;46.67;102716.41;5101745;28;19919;-81
2022/03/19 06:24:24;;;;;;;;;;;;;;;8.90;46.08;102720.94;5092183;28;20295;-80
2022/03/19 06:27:09;;;;;;;;;;;;;;;9.05;47.02;102706.72;5093133;28;19916;-81
2022/03/19 06:29:53;;;;;;;;;;;;;;;8.88;47.03;102702.22;5100453;28;20304;-81
2022/03/19 06:32:39;;;;;;;;;;;;;;;9.05;46.77;102699.41;5086480;28;19912;-81
2022/03/19 06:38:29;;;;;;;;;;;;;;;9.21;47.71;102695.75;5074946;28;20305;-81
2022/03/19 06:41:15;;;;;;;;;;;;;;;9.34;46.50;102698.06;5084049;28;19912;-81
2022/03/19 06:43:59;;;;;;;;;;;;;;;9.36;46.86;102704.03;5100265;28;19912;-81
2022/03/19 06:46:44;;;;;;;;;;;;;;;9.44;46.55;102700.88;5089467;28;19912;-80
2022/03/19 06:49:28;;;;;;;;;;;;;;;9.56;46.85;102697.13;5087641;28;19912;-82
2022/03/19 06:52:13;;;;;;;;;;;;;;;9.65;46.39;102692.88;5085712;28;19912;-81
2022/03/19 06:54:58;;;;;;;;;;;;;;;9.69;45.91;102686.66;5092717;28;20299;-81
2022/03/19 06:57:43;;;;;;;;;;;;;;;9.73;47.06;102679.63;5100805;28;19912;-82
2022/03/19 07:00:27;;;;;;;;;;;;;;;9.68;47.17;102678.78;5063725;28;19912;-84
2022/03/19 07:03:12;;;;;;;;;;;;;;;9.83;47.29;102676.16;5066772;28;19916;-84
2022/03/19 07:05:57;;;;;;;;;;;;;;;10.00;46.78;102670.56;5068250;28;19912;-81
2022/03/19 07:08:42;;;;;;;;;;;;;;;10.06;47.18;102677.63;5069217;28;19912;-81
2022/03/19 07:11:26;;;;;;;;;;;;;;;10.19;46.05;102680.75;5100508;28;20300;-81
2022/03/19 07:14:11;;;;;;;;;;;;;;;10.07;46.35;102674.66;5074326;28;19916;-81
2022/03/19 07:16:56;;;;;;;;;;;;;;;10.06;45.64;102674.91;5086855;28;19912;-81
2022/03/19 07:19:41;;;;;;;;;;;;;;;10.25;45.02;102679.69;5094764;28;20205;-83
2022/03/19 07:22:25;;;;;;;;;;;;;;;10.39;44.51;102674.59;5088946;28;19912;-84
2022/03/19 07:25:09;;;;;;;;;;;;;;;10.40;44.50;102676.22;5064492;28;20380;-86
2022/03/19 07:27:55;;;;;;;;;;;;;;;10.56;43.88;102675.22;5076766;28;19912;-84
2022/03/19 07:30:41;;;;;;;;;;;;;;;10.63;42.47;102678.47;5083450;28;19912;-84
2022/03/19 07:33:27;;;;;;;;;;;;;;;10.57;41.96;102679.53;5085762;28;20307;-82
2022/03/19 07:36:11;;;;;;;;;;;;;;;10.66;41.22;102671.69;5080225;28;20380;-82
2022/03/19 07:38:56;;;;;;;;;;;;;;;10.69;40.66;102665.72;5091628;28;19912;-83
2022/03/19 07:41:48;;;;;;;;;;;;;;;10.84;40.33;102664.94;5077785;28;19911;-83
2022/03/19 07:44:33;;;;;;;;;;;;;;;10.99;40.17;102663.06;5092194;28;19912;-85
2022/03/19 07:47:18;;;;;;;;;;;;;;;11.04;39.51;102660.34;5075336;28;19912;-85
2022/03/19 07:50:04;;;;;;;;;;;;;;;11.03;38.93;102658.69;5099238;28;19912;-84
2022/03/19 07:52:48;;;;;;;;;;;;;;;11.14;38.20;102652.19;5098460;28;19915;-85
2022/03/19 07:55:34;;;;;;;;;;;;;;;11.42;37.61;102655.47;5086525;28;19912;-84
2022/03/19 07:58:19;;;;;;;;;;;;;;;11.58;36.74;102654.31;5078970;28;20296;-84
2022/03/19 08:01:03;;;;;;;;;;;;;;;11.53;36.68;102646.16;5062085;28;20155;-85
2022/03/19 08:03:48;;;;;;;;;;;;;;;11.65;36.20;102643.97;5077756;28;19913;-85
2022/03/19 08:06:32;;;;;;;;;;;;;;;12.15;35.86;102644.97;5078219;28;19912;-86
2022/03/19 08:09:17;;;;;;;;;;;;;;;12.25;36.01;102636.75;5077102;28;19913;-85
2022/03/19 08:12:02;;;;;;;;;;;;;;;12.48;35.03;102638.84;5097753;22;19905;-91
2022/03/19 08:14:47;;;;;;;;;;;;;;;12.57;35.41;102639.88;5074809;28;19909;-93
2022/03/19 08:17:32;;;;;;;;;;;;;;;12.71;35.45;102637.31;5070826;28;19904;-93
2022/03/19 08:20:18;;;;;;;;;;;;;;;12.66;35.39;102635.44;5066055;28;19929;-96
2022/03/19 08:23:02;;;;;;;;;;;;;;;13.05;34.66;102630.00;5078164;28;19905;-96
2022/03/19 08:25:47;;;;;;;;;;;;;;;13.18;33.62;102623.09;5066875;28;19916;-92
2022/03/19 08:28:34;;;;;;;;;;;;;;;12.84;34.52;102623.88;5074506;28;19904;-96
2022/03/19 08:31:19;;;;;;;;;;;;;;;12.84;34.64;102621.16;5082905;28;19908;-94
2022/03/19 08:34:03;;;;;;;;;;;;;;;12.85;34.65;102614.56;5080052;28;19913;-90
2022/03/19 08:36:52;;;;;;;;;;;;;;;12.84;34.31;102618.41;5065926;28;19925;-95
2022/03/19 08:46:34;;;;;;;;;;;;;;;13.50;33.51;102604.22;5073781;28;19904;-85
2022/03/19 08:49:19;;;;;;;;;;;;;;;13.34;33.67;102608.22;5067240;28;19920;-90
2022/03/19 08:52:04;;;;;;;;;;;;;;;13.40;33.88;102604.34;5074976;28;19901;-91
2022/03/19 08:54:48;;;;;;;;;;;;;;;13.38;33.77;102597.50;5059532;28;19901;-90
2022/03/19 08:57:32;;;;;;;;;;;;;;;13.38;33.99;102598.31;5061341;28;19905;-94
2022/03/19 09:00:17;;;;;;;;;;;;;;;13.33;34.11;102598.38;5058263;28;19909;-94
2022/03/19 09:03:02;;;;;;;;;;;;;;;13.52;33.10;102596.53;5061735;28;19909;-92
2022/03/19 09:05:47;;;;;;;;;;;;;;;13.88;31.19;102587.94;5059252;28;19925;-92
2022/03/19 09:08:32;;;;;;;;;;;;;;;13.88;32.36;102590.69;5056167;28;19921;-84
2022/03/19 09:11:18;;;;;;;;;;;;;;;13.84;30.80;102581.44;5047749;28;19916;-84
2022/03/19 09:14:04;;;;;;;;;;;;;;;13.87;31.20;102578.09;5047563;28;19913;-85
2022/03/19 09:16:48;;;;;;;;;;;;;;;14.08;29.21;102582.22;5050831;28;19917;-86
2022/03/19 09:19:33;;;;;;;;;;;;;;;13.87;29.55;102573.47;5051914;28;19913;-84
2022/03/19 09:22:17;;;;;;;;;;;;;;;13.77;30.01;102570.84;5044654;28;19913;-84
2022/03/19 09:25:02;;;;;;;;;;;;;;;13.91;31.05;102566.31;5051203;28;19912;-85
2022/03/19 09:27:47;;;;;;;;;;;;;;;14.02;30.56;102566.97;5050619;28;19917;-88
2022/03/19 09:30:32;;;;;;;;;;;;;;;14.11;29.97;102565.25;5046948;28;19913;-84
2022/03/19 09:33:16;;;;;;;;;;;;;;;14.01;30.63;102559.91;5044127;28;20172;-84
2022/03/19 09:36:01;;;;;;;;;;;;;;;14.08;29.95;102561.16;5065450;28;19908;-89
2022/03/19 09:38:46;;;;;;;;;;;;;;;14.17;29.88;102553.09;5064758;28;19925;-84
2022/03/19 09:41:31;;;;;;;;;;;;;;;14.18;30.18;102546.53;5057923;28;19913;-85
2022/03/19 09:44:17;;;;;;;;;;;;;;;14.12;30.58;102545.78;5050701;28;19912;-84
2022/03/19 09:47:05;;;;;;;;;;;;;;;14.17;29.98;102539.41;5075942;28;19901;-88
2022/03/19 09:49:49;;;;;;;;;;;;;;;14.32;29.12;102541.97;5066031;28;19913;-88
2022/03/19 09:52:36;;;;;;;;;;;;;;;14.33;29.06;102549.06;5072654;28;19913;-91
2022/03/19 09:55:21;;;;;;;;;;;;;;;14.29;28.43;102547.19;5064684;28;19921;-88
2022/03/19 09:58:06;;;;;;;;;;;;;;;14.32;27.92;102539.25;5062458;28;19920;-89
2022/03/19 10:00:50;;;;;;;;;;;;;;;14.30;27.23;102540.63;5064474;28;19897;-95
2022/03/19 10:03:39;;;;;;;;;;;;;;;14.40;27.81;102529.56;5076904;28;20381;-85
2022/03/19 10:09:27;;;;;;;;;;;;;;;14.45;28.21;102518.53;5063133;28;19900;-82
2022/03/19 10:12:14;;;;;;;;;;;;;;;14.49;28.46;102520.38;5053519;28;19913;-82
2022/03/19 10:14:59;;;;;;;;;;;;;;;14.53;28.74;102517.84;5067378;28;19917;-83
2022/03/19 10:17:44;;;;;;;;;;;;;;;14.63;28.45;102511.44;5058051;28;19913;-82
2022/03/19 10:20:32;;;;;;;;;;;;;;;14.60;28.57;102512.00;5054821;28;19913;-82
2022/03/19 10:23:28;;;;;;;;;;;;;;;14.67;28.14;102506.97;5053161;28;19916;-85
2022/03/19 10:26:27;;;;;;;;;;;;;;;14.66;27.39;102508.09;5071050;28;19916;-83
2022/03/19 10:29:11;;;;;;;;;;;;;;;14.57;28.08;102504.41;5053901;28;19913;-82
2022/03/19 10:32:00;;;;;;;;;;;;;;;14.62;27.85;102501.59;5062421;28;19913;-83
2022/03/19 10:34:44;;;;;;;;;;;;;;;14.72;27.64;102494.03;5053388;28;20385;-86
2022/03/19 10:37:39;;;;;;;;;;;;;;;14.73;28.40;102489.34;5053851;28;19913;-84
2022/03/19 10:40:40;;;;;;;;;;;;;;;14.72;27.72;102491.28;5051671;28;19912;-83
2022/03/19 10:43:27;;;;;;;;;;;;;;;14.83;27.06;102491.91;5055294;28;19908;-84
2022/03/19 10:46:12;;;;;;;;;;;;;;;14.91;26.97;102491.22;5059947;28;19905;-86
2022/03/19 10:48:58;;;;;;;;;;;;;;;15.06;25.91;102485.47;5085341;28;19904;-93
2022/03/19 10:51:45;;;;;;;;;;;;;;;15.10;26.66;102478.25;5067842;28;19909;-94
2022/03/19 10:54:30;;;;;;;;;;;;;;;15.14;26.72;102473.78;5067194;28;19908;-92
2022/03/19 10:57:15;;;;;;;;;;;;;;;15.23;25.99;102472.00;5063371;28;19904;-96
2022/03/19 10:59:59;;;;;;;;;;;;;;;15.25;26.55;102472.50;5069464;28;19909;-90
2022/03/19 11:02:45;;;;;;;;;;;;;;;15.33;27.17;102471.81;5067893;28;19909;-96
2022/03/19 11:05:33;;;;;;;;;;;;;;;15.34;26.38;102462.44;5059751;28;19920;-84
2022/03/19 11:08:19;;;;;;;;;;;;;;;15.42;24.73;102460.94;5058540;28;19913;-87
2022/03/19 11:11:10;;;;;;;;;;;;;;;15.27;25.33;102459.31;5054935;28;19912;-85
2022/03/19 11:13:58;;;;;;;;;;;;;;;15.11;26.22;102454.41;5054953;28;20381;-87
2022/03/19 11:17:23;;;;;;;;;;;;;;;15.32;26.48;102450.16;5039028;28;19920;-84
2022/03/19 11:19:55;;;;;;;;;;;;;;;15.17;26.26;102445.81;5049524;28;19912;-95
2022/03/19 11:22:43;;;;;;;;;;;;;;;15.62;25.58;102440.53;5060853;28;19913;-84
2022/03/19 11:25:30;;;;;;;;;;;;;;;15.76;25.86;102444.88;5053379;28;19912;-87
2022/03/19 11:28:15;;;;;;;;;;;;;;;15.77;26.12;102435.53;5054720;28;19913;-87
2022/03/19 11:31:03;;;;;;;;;;;;;;;15.96;25.01;102434.56;5050526;28;20393;-84
2022/03/19 11:33:48;;;;;;;;;;;;;;;15.98;24.21;102432.31;5053187;28;20483;-84
2022/03/19 11:36:52;;;;;;;;;;;;;;;15.98;25.17;102422.16;5052719;28;19917;-84
2022/03/19 11:39:37;;;;;;;;;;;;;;;16.17;24.42;102414.56;5054200;28;19916;-83
2022/03/19 11:42:27;;;;;;;;;;;;;;;16.43;24.02;102419.44;5052235;28;19912;-84
2022/03/19 11:45:12;;;;;;;;;;;;;;;16.40;25.00;102409.91;5050778;28;19916;-83
2022/03/19 11:47:57;;;;;;;;;;;;;;;16.34;24.14;102413.06;5053797;28;19912;-84
2022/03/19 11:50:46;;;;;;;;;;;;;;;16.39;23.83;102404.72;5067066;28;19912;-85
2022/03/19 11:53:49;;;;;;;;;;;;;;;16.45;23.97;102397.97;5049251;28;19913;-83
2022/03/19 11:56:39;;;;;;;;;;;;;;;16.52;22.52;102398.31;5054303;28;19916;-83
2022/03/19 11:59:24;;;;;;;;;;;;;;;16.56;23.02;102394.63;5053268;28;19912;-83
2022/03/19 12:02:12;;;;;;;;;;;;;;;16.62;23.58;102392.59;5055634;28;19913;-84
2022/03/19 12:04:57;;;;;;;;;;;;;;;16.79;22.74;102392.69;5060368;28;19913;-84
2022/03/19 12:07:47;;;;;;;;;;;;;;;16.65;23.41;102386.47;5056709;28;19912;-84
2022/03/19 12:10:38;;;;;;;;;;;;;;;16.50;23.47;102375.88;5055599;28;19968;-84
2022/03/19 12:13:28;;;;;;;;;;;;;;;16.62;23.99;102378.84;5056323;28;19912;-84
2022/03/19 12:16:54;;;;;;;;;;;;;;;16.61;22.15;102363.50;5047770;28;19905;-95
2022/03/19 12:20:14;;;;;;;;;;;;;;;16.85;22.86;102361.19;5058963;28;19909;-96
2022/03/19 12:23:07;;;;;;;;;;;;;;;16.86;21.97;102371.06;5057903;28;19909;-90
2022/03/19 12:25:52;;;;;;;;;;;;;;;16.79;21.87;102354.22;5045682;28;19905;-85
2022/03/19 12:28:42;;;;;;;;;;;;;;;16.78;22.09;102358.09;5044621;28;19909;-89
2022/03/19 12:31:32;;;;;;;;;;;;;;;16.91;21.70;102356.38;5044590;28;19917;-84
2022/03/19 12:34:18;;;;;;;;;;;;;;;16.85;22.12;102347.47;5063886;28;19920;-85
2022/03/19 12:37:03;;;;;;;;;;;;;;;16.89;23.73;102337.44;5036162;28;19917;-80
2022/03/19 12:39:56;;;;;;;;;;;;;;;21.01;24.56;102350.41;5049037;28;19913;-79
2022/03/19 12:42:42;;;;;;;;;;;;;;;22.75;16.00;102347.16;5058294;28;19921;-86
2022/03/19 12:45:37;;;;;;;;;;;;;;;20.75;17.44;102341.63;5053470;28;19912;-82
2022/03/19 12:48:22;;;;;;;;;;;;;;;22.61;15.42;102344.78;5055124;28;19912;-81
2022/03/19 12:51:06;;;;;;;;;;;;;;;25.73;13.21;102343.31;5052082;28;19912;-82
2022/03/19 12:53:51;;;;;;;;;;;;;;;23.81;15.97;102335.72;5047287;28;19913;-81
2022/03/19 12:56:38;;;;;;;;;;;;;;;22.56;15.36;102325.63;5038154;28;19917;-79
2022/03/19 12:59:24;;;;;;;;;;;;;;;22.93;14.89;102327.00;5038413;28;19913;-81
2022/03/19 13:02:08;;;;;;;;;;;;;;;21.57;16.80;102318.16;5034812;28;19897;-81
2022/03/19 13:04:53;;;;;;;;;;;;;;;24.39;14.58;102322.53;5040752;28;19913;-83
2022/03/19 13:07:38;;;;;;;;;;;;;;;21.63;15.65;102299.34;5037605;28;19917;-82
2022/03/19 13:10:23;;;;;;;;;;;;;;;22.25;16.16;102297.91;5041326;28;19917;-82
2022/03/19 13:13:08;;;;;;;;;;;;;;;26.37;13.67;102296.63;5069854;28;19917;-82
2022/03/19 13:15:54;;;;;;;;;;;;;;;23.95;15.16;102299.06;5070425;28;19912;-82
2022/03/19 13:18:42;;;;;;;;;;;;;;;23.51;14.83;102288.28;5075157;28;19921;-83
2022/03/19 13:21:28;;;;;;;;;;;;;;;25.80;13.36;102298.81;5073732;28;19913;-82
2022/03/19 13:24:13;;;;;;;;;;;;;;;23.66;15.34;102284.63;5079836;28;19912;-80
2022/03/19 13:26:58;;;;;;;;;;;;;;;25.53;13.33;102298.06;5056088;28;19916;-83
2022/03/19 13:29:43;;;;;;;;;;;;;;;23.51;15.12;102282.72;5071412;28;19913;-81
2022/03/19 13:32:29;;;;;;;;;;;;;;;21.92;16.28;102287.09;5048352;28;19916;-84
2022/03/19 13:35:14;;;;;;;;;;;;;;;21.30;16.50;102271.88;5053783;28;20301;-81
2022/03/19 13:38:07;;;;;;;;;;;;;;;24.78;14.53;102284.25;5053121;28;19916;-80
2022/03/19 13:40:53;;;;;;;;;;;;;;;22.81;15.79;102276.34;5067815;28;19912;-79
2022/03/19 13:43:39;;;;;;;;;;;;;;;22.62;15.64;102285.38;5064471;28;19912;-80
2022/03/19 13:46:24;;;;;;;;;;;;;;;19.45;18.22;102277.81;5078339;28;19912;-79
2022/03/19 13:49:10;;;;;;;;;;;;;;;20.06;18.30;102270.59;5059602;28;19913;-79
2022/03/19 13:51:54;;;;;;;;;;;;;;;20.43;17.40;102271.47;5068573;28;19912;-80
2022/03/19 13:54:44;;;;;;;;;;;;;;;19.60;18.79;102258.69;5055442;28;19912;-80
2022/03/19 13:57:30;;;;;;;;;;;;;;;20.39;18.82;102263.06;5080370;28;20421;-82
2022/03/19 14:00:23;;;;;;;;;;;;;;;21.45;17.38;102264.78;5049402;28;20421;-80
2022/03/19 14:03:07;;;;;;;;;;;;;;;19.82;19.04;102260.25;5052481;28;19916;-80
2022/03/19 14:05:53;;;;;;;;;;;;;;;19.56;19.31;102259.69;5063341;28;19912;-80
2022/03/19 14:08:39;;;;;;;;;;;;;;;17.40;22.14;102253.44;5053884;28;19917;-79
2022/03/19 14:11:36;;;;;;;;;;;;;;;18.23;21.01;102252.06;5068024;28;19912;-80
2022/03/19 14:14:21;;;;;;;;;;;;;;;16.79;22.79;102263.56;5123451;22;19920;-70
2022/03/19 14:17:05;;;;;;;;;;;;;;;17.01;22.32;102249.72;5095627;28;19916;-69
2022/03/19 14:19:49;;;;;;;;;;;;;;;17.43;22.41;102244.53;5095603;28;19912;-70
2022/03/19 14:22:33;;;;;;;;;;;;;;;17.32;22.60;102246.03;5095615;28;19912;-68
2022/03/19 14:25:18;;;;;;;;;;;;;;;16.45;22.46;102250.50;5109494;28;19911;-73
2022/03/19 14:28:05;;;;;;;;;;;;;;;16.09;23.92;102242.41;5094890;28;19912;-73
2022/03/19 14:30:51;;;;;;;;;;;;;;;15.87;24.21;102250.66;5097596;28;20413;-73
2022/03/19 14:33:36;;;;;;;;;;;;;;;15.43;24.46;102243.25;5095300;28;19912;-73